Pagina principale
METAR-TAF:

METAR-TAF

Aeroporti :

Aeroporto di Osijek-Klisa

Osijek, Croazia

latitudine: 45-27N, longitudine: 018-48E, altezza: 88 m

Osservazione

Il bollettino è stato emesso 26 minuti fa, alle 14:00 UTC
Vento 2 kt da direzioni variabili
Temperature 13°C
Umidità 47%
Pressione 1035 hPa
Visibilità 10 km o più
nessuna nube inferiore a 1500 m e nessun cumulonembo

METAR: LDOS 021400Z VRB02KT CAVOK 13/02 Q1035

Ora: 15:26 (14:26 UTC)

Previsione

Il bollettino è stato emesso 3 ore e 1 minuti fa, alle 11:25 UTC
Previsione valida dal 02 alle 12 UTC al 03 alle 12 UTC
Vento 2 kt da direzioni variabili
Visibilità 10 km o più
nessuna nube inferiore a 1500 m e nessun cumulonembo
Probabilità 40%
dal 03 alle 03 UTC al 03 alle 08 UTC
Visibilità: 3000 m
foschia

TAF: LDOS 021125Z 0212/0312 VRB02KT CAVOK TX13/0214Z TNM03/0306Z PROB40 0303/0308 3000 BR

Osservazioni e previsioni meteorologiche di più di 4000 aeroporti (messaggi METAR e TAF).

Le stazioni disponibili sono rappresentate dai dischi gialli e rossi sulla carta.

Puntare il mouse per vedere il nome della stazione.

Clicca sopra per visualizzare le osservazioni e previsioni meteorologiche.

Per cambiare la mappa : fare clic sui pulsanti verdi con una croce nera per ingrandire, il pulsante verde con un trattino per diminuire, o sulla freccia verde per le mappe adiacenti.


METAR-TAF: